Time;durP1;ratioP1;P1;durP2;ratioP2;P2;SDS_P1;SDS_P2;PMS_P1;PMS_P2;Temp;Humidity;BMP_temperature;BMP_pressure;BME280_temperature;BME280_humidity;BME280_pressure;Samples;Min_cycle;Max_cycle;Signal;HPM_P1;HPM_P2
2021/09/25 00:00:27;;;;;;;22.10;5.90;;;;;;;12.03;66.26;98883.41;113129;1196;107525;-73
2021/09/25 00:03:07;;;;;;;23.20;5.80;;;;;;;12.03;66.64;98883.36;113110;1195;97590;-72
2021/09/25 00:05:42;;;;;;;24.30;6.40;;;;;;;12.04;66.69;98882.44;113108;1195;97639;-71
2021/09/25 00:08:10;;;;;;;24.70;6.70;;;;;;;12.04;66.38;98879.17;113147;1196;111190;-73
2021/09/25 00:10:38;;;;;;;21.10;5.80;;;;;;;12.06;66.48;98880.61;113399;1195;98256;-74
2021/09/25 00:13:10;;;;;;;24.80;6.30;;;;;;;12.07;66.49;98882.19;113234;1196;107524;-73
2021/09/25 00:15:38;;;;;;;20.20;5.80;;;;;;;12.07;66.51;98885.53;113369;1195;97558;-72
2021/09/25 00:18:06;;;;;;;20.70;5.70;;;;;;;12.06;66.75;98884.69;113203;1196;97673;-73
2021/09/25 00:20:39;;;;;;;23.70;6.30;;;;;;;12.06;66.80;98882.98;113222;1197;111154;-74
2021/09/25 00:23:11;;;;;;;23.00;6.50;;;;;;;12.05;66.60;98878.95;113337;1187;97569;-73
2021/09/25 00:25:38;;;;;;;24.70;6.30;;;;;;;12.04;66.72;98877.77;113376;1196;105728;-73
2021/09/25 00:28:06;;;;;;;24.80;6.80;;;;;;;12.04;66.72;98875.49;113344;1196;97678;-75
2021/09/25 00:30:34;;;;;;;18.80;5.70;;;;;;;12.03;66.91;98875.40;113260;1196;97560;-72
2021/09/25 00:33:02;;;;;;;22.40;6.90;;;;;;;12.01;66.78;98873.05;113433;1195;111156;-73
2021/09/25 00:35:30;;;;;;;22.50;7.10;;;;;;;12.00;66.82;98877.77;113293;1195;97558;-74
2021/09/25 00:37:58;;;;;;;19.30;5.40;;;;;;;12.00;66.85;98879.36;113226;1195;107635;-74
2021/09/25 00:40:26;;;;;;;14.70;4.30;;;;;;;12.01;66.94;98876.28;113217;1197;95057;-73
2021/09/25 00:42:53;;;;;;;21.10;6.10;;;;;;;12.01;67.21;98874.32;113204;1195;95055;-73
2021/09/25 00:45:26;;;;;;;20.20;5.80;;;;;;;12.02;67.15;98877.94;113178;1195;110978;-74
2021/09/25 00:47:56;;;;;;;21.10;5.60;;;;;;;12.03;66.93;98876.60;113128;1197;97586;-73
2021/09/25 00:50:29;;;;;;;19.40;6.20;;;;;;;12.04;67.01;98873.88;113155;1196;107444;-71
2021/09/25 00:52:57;;;;;;;18.40;5.90;;;;;;;12.06;67.10;98871.23;113240;1197;98359;-73
2021/09/25 00:55:29;;;;;;;22.60;6.30;;;;;;;12.07;67.03;98870.95;113239;1196;96906;-73
2021/09/25 00:58:05;;;;;;;22.00;6.10;;;;;;;12.08;67.10;98869.13;113047;1195;111161;-73
2021/09/25 01:00:38;;;;;;;19.50;5.20;;;;;;;12.08;67.07;98869.30;112819;1196;97657;-73
2021/09/25 01:03:06;;;;;;;21.20;5.80;;;;;;;12.09;67.18;98869.95;112861;1195;106464;-73
2021/09/25 01:05:41;;;;;;;19.30;5.70;;;;;;;12.10;67.10;98873.75;113146;1196;97566;-74
2021/09/25 01:08:14;;;;;;;18.70;5.20;;;;;;;12.11;67.27;98870.16;113113;1195;97566;-73
2021/09/25 01:10:42;;;;;;;18.20;5.00;;;;;;;12.11;67.17;98866.57;113050;1196;111291;-72
2021/09/25 01:13:10;;;;;;;16.90;5.20;;;;;;;12.13;67.19;98865.20;112842;1196;95052;-73
2021/09/25 01:15:38;;;;;;;18.30;5.50;;;;;;;12.15;67.21;98862.15;113068;1196;107562;-72
2021/09/25 01:18:05;;;;;;;16.50;5.30;;;;;;;12.17;67.29;98866.27;113117;1197;97649;-73
2021/09/25 01:20:33;;;;;;;19.70;5.30;;;;;;;12.19;67.32;98866.05;113127;1196;96043;-73
2021/09/25 01:23:01;;;;;;;18.60;5.10;;;;;;;12.23;67.41;98868.48;112856;1196;111239;-74
2021/09/25 01:25:33;;;;;;;19.10;5.10;;;;;;;12.25;67.50;98865.59;112802;1196;95685;-73
2021/09/25 01:28:05;;;;;;;16.80;4.90;;;;;;;12.27;67.44;98867.89;112841;1196;107632;-73
2021/09/25 01:30:33;;;;;;;16.80;4.90;;;;;;;12.30;67.45;98864.33;113167;1195;98205;-72
2021/09/25 01:33:02;;;;;;;20.10;5.40;;;;;;;12.31;67.50;98861.00;113198;1196;97710;-72
2021/09/25 01:35:34;;;;;;;17.90;4.80;;;;;;;12.33;67.75;98860.33;113135;1195;110901;-72
2021/09/25 01:38:06;;;;;;;19.80;6.00;;;;;;;12.33;67.75;98860.08;113202;1194;97660;-72
2021/09/25 01:40:34;;;;;;;22.20;4.80;;;;;;;12.35;67.74;98854.96;113190;1194;107518;-73
2021/09/25 01:43:02;;;;;;;17.60;5.10;;;;;;;12.36;67.70;98859.86;113138;1194;97579;-73
2021/09/25 01:45:30;;;;;;;23.40;5.30;;;;;;;12.38;67.80;98859.05;113144;1195;97572;-71
2021/09/25 01:47:57;;;;;;;19.90;5.60;;;;;;;12.39;67.75;98858.59;113091;1196;111223;-69
2021/09/25 01:50:25;;;;;;;17.30;5.90;;;;;;;12.40;67.92;98855.84;113119;1195;97603;-72
2021/09/25 01:52:54;;;;;;;17.00;4.90;;;;;;;12.40;67.81;98856.02;113174;1196;107216;-72
2021/09/25 01:55:22;;;;;;;19.40;5.20;;;;;;;12.41;67.94;98857.68;113175;1195;97589;-72
2021/09/25 01:57:50;;;;;;;17.50;5.00;;;;;;;12.42;68.04;98859.58;113254;1196;97593;-73
2021/09/25 02:00:24;;;;;;;17.70;5.60;;;;;;;12.44;68.01;98858.36;113185;1196;111171;-74
2021/09/25 02:02:53;;;;;;;23.90;5.40;;;;;;;12.45;68.16;98861.48;113324;1195;94977;-70
2021/09/25 02:05:22;;;;;;;17.40;5.30;;;;;;;12.47;68.10;98859.68;113326;1196;107596;-74
2021/09/25 02:07:50;;;;;;;21.90;6.10;;;;;;;12.48;68.08;98862.44;113379;1195;97588;-74
2021/09/25 02:10:19;;;;;;;20.30;5.60;;;;;;;12.49;68.24;98863.55;113190;1197;97718;-75
2021/09/25 02:12:47;;;;;;;19.00;6.00;;;;;;;12.51;68.40;98864.66;113392;1195;111142;-73
2021/09/25 02:15:15;;;;;;;18.00;5.50;;;;;;;12.54;68.34;98860.73;113195;1195;95034;-74
2021/09/25 02:17:43;;;;;;;18.90;5.50;;;;;;;12.56;68.28;98859.52;113418;1195;107463;-72
2021/09/25 02:20:12;;;;;;;15.80;5.30;;;;;;;12.57;68.41;98860.29;113399;1196;97679;-73
2021/09/25 02:22:41;;;;;;;16.20;5.00;;;;;;;12.59;68.53;98858.00;113431;1195;95629;-72
2021/09/25 02:25:10;;;;;;;17.10;5.10;;;;;;;12.60;68.61;98859.30;113437;1196;110234;-74
2021/09/25 02:27:41;;;;;;;19.30;5.40;;;;;;;12.62;68.50;98862.19;113465;1197;97580;-74
2021/09/25 02:30:16;;;;;;;16.30;5.50;;;;;;;12.64;68.57;98857.58;113407;1195;107368;-72
2021/09/25 02:32:45;;;;;;;12.90;4.70;;;;;;;12.65;68.63;98855.81;113169;1195;97562;-74
2021/09/25 02:35:16;;;;;;;17.80;5.90;;;;;;;12.69;68.73;98859.98;113400;1195;97682;-72
2021/09/25 02:37:45;;;;;;;17.30;5.70;;;;;;;12.71;68.73;98856.79;113382;1194;111184;-74
2021/09/25 02:40:15;;;;;;;15.10;5.00;;;;;;;12.74;68.82;98859.40;113437;1195;97660;-74
2021/09/25 02:42:44;;;;;;;20.00;5.90;;;;;;;12.75;68.72;98859.45;113423;1195;107541;-73
2021/09/25 02:45:13;;;;;;;18.30;6.10;;;;;;;12.77;68.73;98859.28;113202;1195;97663;-70
2021/09/25 02:47:42;;;;;;;14.00;5.00;;;;;;;12.79;68.82;98854.17;113395;1195;97591;-72
2021/09/25 02:50:14;;;;;;;16.20;5.30;;;;;;;12.80;68.86;98850.84;113293;1195;111172;-72
2021/09/25 02:52:42;;;;;;;15.30;4.70;;;;;;;12.84;68.86;98852.38;113205;1195;97723;-73
2021/09/25 02:55:11;;;;;;;14.60;5.10;;;;;;;12.86;68.97;98854.09;113423;1195;107186;-73
2021/09/25 02:57:40;;;;;;;12.40;4.70;;;;;;;12.89;69.02;98851.70;113423;1194;97667;-72
2021/09/25 03:00:13;;;;;;;15.20;5.20;;;;;;;12.93;68.98;98849.45;113379;1196;95042;-73
2021/09/25 03:02:41;;;;;;;12.80;5.10;;;;;;;12.98;69.23;98853.65;113390;1195;111193;-73
2021/09/25 03:05:10;;;;;;;14.10;4.80;;;;;;;13.01;69.20;98850.50;113163;1195;95055;-73
2021/09/25 03:07:37;;;;;;;21.90;5.50;;;;;;;13.06;69.36;98855.44;113384;1195;107628;-72
2021/09/25 03:10:07;;;;;;;16.90;5.10;;;;;;;13.10;69.14;98856.66;113320;1195;97569;-73
2021/09/25 03:12:36;;;;;;;15.10;4.70;;;;;;;13.15;69.23;98855.59;113395;1196;97577;-73
2021/09/25 03:15:06;;;;;;;14.50;5.20;;;;;;;13.18;69.12;98859.95;113171;1195;112120;-73
2021/09/25 03:17:34;;;;;;;13.50;4.40;;;;;;;13.22;69.19;98863.88;113153;1195;97612;-73
2021/09/25 03:20:04;;;;;;;15.30;5.20;;;;;;;13.25;69.15;98861.81;113306;1195;107500;-72
2021/09/25 03:22:32;;;;;;;14.20;5.00;;;;;;;13.27;69.10;98856.67;113210;1195;97703;-72
2021/09/25 03:25:03;;;;;;;11.60;4.30;;;;;;;13.29;69.22;98857.77;113117;1195;97601;-72
2021/09/25 03:27:31;;;;;;;15.30;5.10;;;;;;;13.30;69.19;98854.39;113192;1195;111193;-75
2021/09/25 03:29:59;;;;;;;12.60;4.60;;;;;;;13.31;69.15;98855.71;113165;1196;97724;-74
2021/09/25 03:32:26;;;;;;;9.60;4.60;;;;;;;13.32;69.18;98857.41;113386;1195;107353;-75
2021/09/25 03:34:54;;;;;;;15.30;5.20;;;;;;;13.33;69.20;98858.48;113448;1196;97564;-74
2021/09/25 03:37:22;;;;;;;13.90;5.30;;;;;;;13.33;69.26;98859.55;113426;1195;96456;-75
2021/09/25 03:39:50;;;;;;;13.00;5.20;;;;;;;13.34;69.28;98855.90;113392;1195;111168;-75
2021/09/25 03:42:18;;;;;;;13.20;4.70;;;;;;;13.34;69.27;98858.02;113437;1195;96507;-72
2021/09/25 03:44:46;;;;;;;14.20;4.70;;;;;;;13.34;69.29;98859.64;113382;1195;107452;-74
2021/09/25 03:47:14;;;;;;;14.70;5.30;;;;;;;13.33;69.31;98857.58;113426;1195;95077;-72
2021/09/25 03:49:42;;;;;;;15.90;5.90;;;;;;;13.32;69.31;98858.67;113198;1195;97664;-72
2021/09/25 03:52:10;;;;;;;13.90;4.80;;;;;;;13.32;69.41;98862.11;113358;1190;111144;-73
2021/09/25 03:54:37;;;;;;;18.50;5.20;;;;;;;13.32;69.43;98866.19;113391;1195;97660;-73
2021/09/25 03:57:05;;;;;;;13.40;5.50;;;;;;;13.32;69.38;98869.25;113400;1195;107974;-70
2021/09/25 03:59:33;;;;;;;15.10;5.60;;;;;;;13.31;69.44;98873.20;113419;1195;96458;-70
2021/09/25 04:02:02;;;;;;;14.00;5.30;;;;;;;13.32;69.54;98874.56;113398;1195;98291;-76
2021/09/25 04:04:30;;;;;;;18.40;6.70;;;;;;;13.31;69.50;98882.27;113294;1195;111136;-74
2021/09/25 04:06:58;;;;;;;14.80;5.10;;;;;;;13.31;69.49;98885.46;113374;1195;97696;-74
2021/09/25 04:09:26;;;;;;;13.80;4.90;;;;;;;13.32;69.52;98883.47;113187;1195;107597;-73
2021/09/25 04:11:54;;;;;;;17.00;5.50;;;;;;;13.32;69.56;98885.97;113340;1195;97625;-75
2021/09/25 04:14:23;;;;;;;14.90;5.50;;;;;;;13.32;69.57;98883.41;113200;1195;97554;-74
2021/09/25 04:16:52;;;;;;;13.30;5.20;;;;;;;13.33;69.58;98891.52;113162;1195;111297;-73
2021/09/25 04:19:20;;;;;;;14.50;5.50;;;;;;;13.33;69.64;98892.79;113408;1195;97717;-72
2021/09/25 04:21:50;;;;;;;14.90;5.80;;;;;;;13.33;69.65;98890.98;113381;1195;107530;-72
2021/09/25 04:24:17;;;;;;;13.60;5.30;;;;;;;13.35;69.73;98894.59;113198;1195;98423;-73
2021/09/25 04:26:45;;;;;;;15.00;5.70;;;;;;;13.36;69.72;98894.02;113141;1196;97995;-72
2021/09/25 04:29:13;;;;;;;18.30;6.10;;;;;;;13.36;69.73;98897.73;113354;1196;111188;-72
2021/09/25 04:31:41;;;;;;;19.50;7.30;;;;;;;13.36;69.68;98903.75;113328;1196;97710;-72
2021/09/25 04:34:09;;;;;;;14.90;6.20;;;;;;;13.37;69.72;98904.56;113408;1195;107535;-73
2021/09/25 04:36:38;;;;;;;17.70;6.00;;;;;;;13.36;69.74;98905.84;113365;1195;98211;-74
2021/09/25 04:39:07;;;;;;;17.60;6.10;;;;;;;13.38;69.73;98911.63;113221;1195;98307;-74
2021/09/25 04:41:35;;;;;;;19.30;5.90;;;;;;;13.38;69.73;98914.23;113410;1197;111110;-73
2021/09/25 04:44:03;;;;;;;13.30;5.80;;;;;;;13.37;69.75;98915.24;113404;1195;97552;-74
2021/09/25 04:46:31;;;;;;;16.40;5.50;;;;;;;13.37;69.80;98916.17;113394;1195;105615;-74
2021/09/25 04:48:59;;;;;;;15.80;5.40;;;;;;;13.36;69.79;98915.86;113361;1195;97592;-73
2021/09/25 04:51:26;;;;;;;13.20;4.80;;;;;;;13.36;69.80;98917.16;113175;1196;97739;-73
2021/09/25 04:53:54;;;;;;;16.90;5.20;;;;;;;13.35;69.88;98922.20;113347;1196;112122;-73
2021/09/25 04:56:22;;;;;;;14.90;5.30;;;;;;;13.35;69.90;98923.08;113433;1195;97567;-72
2021/09/25 04:58:50;;;;;;;13.70;5.30;;;;;;;13.35;69.90;98922.04;113409;1195;107546;-69
2021/09/25 05:01:18;;;;;;;15.30;5.30;;;;;;;13.35;70.00;98918.48;113374;1195;97569;-73
2021/09/25 05:03:48;;;;;;;15.20;6.20;;;;;;;13.34;69.94;98924.03;113157;1195;96493;-71
2021/09/25 05:06:17;;;;;;;15.80;5.30;;;;;;;13.35;69.97;98918.11;113205;1196;111163;-73
2021/09/25 05:08:46;;;;;;;14.90;5.10;;;;;;;13.36;69.93;98923.31;113207;1195;97660;-73
2021/09/25 05:11:14;;;;;;;14.30;5.30;;;;;;;13.37;69.97;98925.37;113181;1196;107348;-74
2021/09/25 05:13:41;;;;;;;11.00;4.80;;;;;;;13.39;70.02;98925.61;112713;1190;96215;-74
2021/09/25 05:16:09;;;;;;;13.00;4.60;;;;;;;13.40;70.06;98926.58;112967;1195;97569;-72
2021/09/25 05:18:37;;;;;;;13.10;5.10;;;;;;;13.41;70.08;98924.73;112638;1196;111162;-72
2021/09/25 05:21:05;;;;;;;13.80;5.20;;;;;;;13.42;70.10;98921.80;112838;1195;97761;-73
2021/09/25 05:23:34;;;;;;;12.10;5.20;;;;;;;13.44;70.10;98921.67;113075;1195;106742;-72
2021/09/25 05:26:04;;;;;;;12.80;5.10;;;;;;;13.44;70.19;98922.70;112880;1196;97606;-72
2021/09/25 05:28:32;;;;;;;13.80;5.50;;;;;;;13.44;70.12;98923.25;113120;1195;95495;-72
2021/09/25 05:30:59;;;;;;;11.70;4.70;;;;;;;13.44;70.15;98922.88;112850;1196;111147;-72
2021/09/25 05:33:27;;;;;;;13.70;5.00;;;;;;;13.44;70.14;98922.71;113092;1195;97649;-71
2021/09/25 05:35:55;;;;;;;11.40;4.40;;;;;;;13.44;70.18;98920.54;112933;1196;105915;-73
2021/09/25 05:38:23;;;;;;;10.90;4.60;;;;;;;13.45;70.20;98920.48;112794;1196;97557;-70
2021/09/25 05:40:52;;;;;;;18.50;4.80;;;;;;;13.48;70.16;98922.13;112948;1196;96323;-69
2021/09/25 05:43:19;;;;;;;10.50;4.10;;;;;;;13.50;70.24;98929.08;113133;1195;111755;-69
2021/09/25 05:45:47;;;;;;;10.00;4.40;;;;;;;13.52;70.24;98933.42;113011;1196;97662;-69
2021/09/25 05:48:15;;;;;;;12.80;4.30;;;;;;;13.53;70.24;98936.18;113073;1195;107313;-70
2021/09/25 05:50:45;;;;;;;10.20;4.80;;;;;;;13.54;70.28;98939.27;113108;1195;97574;-67
2021/09/25 05:53:13;;;;;;;12.30;4.60;;;;;;;13.56;70.25;98940.00;112991;1195;97597;-69
2021/09/25 05:55:41;;;;;;;12.10;4.00;;;;;;;13.58;70.30;98944.65;113129;1195;111624;-70
2021/09/25 05:58:08;;;;;;;11.20;4.50;;;;;;;13.60;70.34;98948.98;113165;1195;95036;-70
2021/09/25 06:00:36;;;;;;;11.70;4.10;;;;;;;13.60;70.29;98951.78;112942;1195;107942;-69
2021/09/25 06:03:08;;;;;;;13.10;4.70;;;;;;;13.61;70.28;98953.02;113067;1195;97550;-69
2021/09/25 06:05:36;;;;;;;12.60;4.60;;;;;;;13.61;70.38;98950.46;113036;1195;95197;-68
2021/09/25 06:08:04;;;;;;;11.20;4.60;;;;;;;13.62;70.30;98950.58;113003;1196;111160;-70
2021/09/25 06:10:32;;;;;;;11.80;4.40;;;;;;;13.62;70.39;98951.77;112997;1196;96476;-70
2021/09/25 06:13:00;;;;;;;11.70;4.60;;;;;;;13.63;70.33;98950.27;112993;1196;106496;-70
2021/09/25 06:15:28;;;;;;;12.90;4.70;;;;;;;13.64;70.37;98956.39;113017;1195;97597;-68
2021/09/25 06:17:56;;;;;;;13.70;4.40;;;;;;;13.65;70.35;98956.13;112903;1196;96901;-69
2021/09/25 06:20:24;;;;;;;10.10;4.40;;;;;;;13.67;70.42;98957.58;112967;1195;111730;-70
2021/09/25 06:22:51;;;;;;;8.60;3.80;;;;;;;13.68;70.40;98960.50;112994;1195;97675;-70
2021/09/25 06:25:20;;;;;;;8.60;3.80;;;;;;;13.70;70.46;98959.49;112827;1196;108096;-71
2021/09/25 06:27:48;;;;;;;12.40;4.70;;;;;;;13.71;70.36;98959.58;112902;1196;97542;-69
2021/09/25 06:30:16;;;;;;;11.50;4.80;;;;;;;13.72;70.36;98960.52;112696;1198;97727;-68
2021/09/25 06:32:45;;;;;;;10.40;4.20;;;;;;;13.74;70.38;98963.63;112665;1196;110875;-68
2021/09/25 06:35:15;;;;;;;12.10;5.10;;;;;;;13.75;70.39;98966.20;113031;1196;97640;-69
2021/09/25 06:37:43;;;;;;;14.30;4.50;;;;;;;13.76;70.47;98964.87;112938;1196;107559;-70
2021/09/25 06:40:12;;;;;;;13.30;4.80;;;;;;;13.77;70.37;98966.52;113140;1195;95058;-69
2021/09/25 06:42:42;;;;;;;13.60;4.60;;;;;;;13.78;70.42;98971.79;113227;1188;95052;-71
2021/09/25 06:45:11;;;;;;;16.70;4.70;;;;;;;13.79;70.46;98971.55;113084;1195;111208;-70
2021/09/25 06:47:39;;;;;;;12.60;4.60;;;;;;;13.80;70.42;98973.77;113262;1195;97665;-69
2021/09/25 06:50:08;;;;;;;13.50;4.80;;;;;;;13.81;70.43;98973.33;113167;1195;107107;-69
2021/09/25 06:52:36;;;;;;;11.20;4.30;;;;;;;13.82;70.46;98978.05;113158;1195;97545;-70
2021/09/25 06:55:06;;;;;;;12.10;4.20;;;;;;;13.82;70.45;98980.85;112638;1197;97729;-69
2021/09/25 06:57:34;;;;;;;12.80;4.80;;;;;;;13.84;70.42;98981.96;113116;1195;111180;-69
2021/09/25 07:00:04;;;;;;;12.00;4.10;;;;;;;13.86;70.47;98985.56;113007;1196;97695;-72
2021/09/25 07:02:39;;;;;;;8.70;3.80;;;;;;;13.87;70.48;98985.45;113098;1195;107535;-70
2021/09/25 07:05:09;;;;;;;7.70;3.50;;;;;;;13.89;70.54;98991.14;113096;1196;97603;-70
2021/09/25 07:07:37;;;;;;;9.30;3.90;;;;;;;13.92;70.49;98992.70;113129;1196;95184;-69
2021/09/25 07:10:07;;;;;;;9.90;3.40;;;;;;;13.94;70.51;98996.92;113097;1196;111685;-68
2021/09/25 07:12:34;;;;;;;11.20;3.90;;;;;;;13.98;70.54;98997.36;113146;1195;97642;-69
2021/09/25 07:15:08;;;;;;;12.10;4.60;;;;;;;14.02;70.57;98994.18;112850;1196;107584;-68
2021/09/25 07:17:36;;;;;;;11.10;4.70;;;;;;;14.05;70.51;98998.55;113147;1196;96493;-71
2021/09/25 07:20:06;;;;;;;11.10;4.20;;;;;;;14.08;70.52;99001.65;112903;1196;97596;-70
2021/09/25 07:22:33;;;;;;;10.30;4.00;;;;;;;14.11;70.51;99001.71;112860;1196;111192;-72
2021/09/25 07:25:03;;;;;;;10.40;3.90;;;;;;;14.14;70.51;99002.35;113112;1195;95097;-72
2021/09/25 07:27:31;;;;;;;12.60;4.80;;;;;;;14.17;70.50;99007.05;113055;1196;107650;-70
2021/09/25 07:29:59;;;;;;;9.00;4.40;;;;;;;14.20;70.51;99009.45;112896;1196;95059;-70
2021/09/25 07:32:27;;;;;;;11.10;4.50;;;;;;;14.23;70.51;99009.59;113078;1195;96255;-70
2021/09/25 07:34:55;;;;;;;7.90;3.80;;;;;;;14.26;70.40;99012.39;112851;1196;111105;-71
2021/09/25 07:37:23;;;;;;;11.90;4.10;;;;;;;14.28;70.55;99014.42;113089;1196;97638;-74
2021/09/25 07:39:52;;;;;;;11.00;4.70;;;;;;;14.33;70.56;99016.72;112649;1196;106117;-70
2021/09/25 07:42:24;;;;;;;10.00;4.20;;;;;;;14.38;70.57;99018.70;113076;1196;96467;-70
2021/09/25 07:44:52;;;;;;;11.70;4.40;;;;;;;14.43;70.55;99023.52;113130;1196;97650;-75
2021/09/25 07:47:20;;;;;;;9.30;4.00;;;;;;;14.44;70.53;99022.67;112881;1196;110763;-72
2021/09/25 07:49:49;;;;;;;11.80;4.00;;;;;;;14.46;70.54;99024.84;113106;1195;97731;-70
2021/09/25 07:52:17;;;;;;;9.80;3.90;;;;;;;14.48;70.46;99026.34;113074;1196;108008;-75
2021/09/25 07:54:45;;;;;;;9.80;3.70;;;;;;;14.49;70.52;99032.77;113133;1196;95996;-70
2021/09/25 07:57:13;;;;;;;11.10;4.70;;;;;;;14.51;70.40;99031.18;113147;1195;97588;-71
2021/09/25 07:59:41;;;;;;;9.10;4.00;;;;;;;14.53;70.49;99035.07;113136;1195;109544;-72
2021/09/25 08:02:10;;;;;;;6.80;3.90;;;;;;;14.55;70.56;99033.54;113098;1195;96295;-72
2021/09/25 08:04:38;;;;;;;11.30;4.40;;;;;;;14.56;70.49;99033.19;113083;1195;107561;-71
2021/09/25 08:07:06;;;;;;;10.00;4.10;;;;;;;14.58;70.41;99038.20;113103;1195;97562;-74
2021/09/25 08:09:34;;;;;;;10.10;4.50;;;;;;;14.61;70.48;99037.29;113154;1195;96264;-74
2021/09/25 08:12:03;;;;;;;9.80;4.40;;;;;;;14.63;70.53;99034.23;112981;1195;110733;-70
2021/09/25 08:14:31;;;;;;;9.60;4.00;;;;;;;14.65;70.48;99031.90;113089;1195;97630;-73
2021/09/25 08:16:59;;;;;;;10.90;4.60;;;;;;;14.68;70.48;99021.66;113095;1195;106548;-71
2021/09/25 08:19:27;;;;;;;12.70;4.60;;;;;;;14.71;70.45;99025.52;113135;1195;97664;-72
2021/09/25 08:21:54;;;;;;;14.00;5.20;;;;;;;14.74;70.49;99032.33;113116;1194;97663;-71
2021/09/25 08:24:22;;;;;;;12.60;4.50;;;;;;;14.78;70.45;99027.54;113170;1195;111173;-71
2021/09/25 08:26:50;;;;;;;13.70;4.90;;;;;;;14.83;70.44;99033.34;113152;1187;97723;-71
2021/09/25 08:29:18;;;;;;;13.00;4.50;;;;;;;14.88;70.44;99036.29;113181;1195;107592;-71
2021/09/25 08:31:46;;;;;;;13.30;4.60;;;;;;;14.93;70.44;99034.78;113054;1195;97590;-72
2021/09/25 08:34:15;;;;;;;11.10;4.90;;;;;;;14.98;70.49;99032.02;113205;1195;97553;-70
2021/09/25 08:36:43;;;;;;;12.20;4.90;;;;;;;15.02;70.40;99033.75;113166;1195;110197;-72
2021/09/25 08:39:13;;;;;;;12.50;4.50;;;;;;;15.07;70.48;99031.58;113110;1195;97700;-71
2021/09/25 08:41:41;;;;;;;14.60;4.80;;;;;;;15.11;70.34;99029.24;113005;1195;107631;-70
2021/09/25 08:44:10;;;;;;;14.20;5.20;;;;;;;15.16;70.36;99028.35;113082;1195;97704;-71
2021/09/25 08:46:38;;;;;;;11.50;4.80;;;;;;;15.21;70.39;99024.58;112846;1196;97623;-70
2021/09/25 08:49:07;;;;;;;12.00;5.00;;;;;;;15.27;70.37;99023.85;113101;1195;111134;-72
2021/09/25 08:51:36;;;;;;;14.10;5.50;;;;;;;15.35;70.46;99024.89;113157;1195;97564;-70
2021/09/25 08:54:05;;;;;;;18.80;6.20;;;;;;;15.43;70.39;99028.19;113253;1195;109493;-72
2021/09/25 08:56:33;;;;;;;14.90;6.20;;;;;;;15.52;70.34;99032.62;113083;1195;97569;-71
2021/09/25 08:59:01;;;;;;;18.50;6.50;;;;;;;15.61;70.36;99029.45;113110;1195;98277;-71
2021/09/25 09:01:29;;;;;;;18.90;7.60;;;;;;;15.69;70.25;99034.58;112997;1195;111155;-72
2021/09/25 09:03:58;;;;;;;18.50;8.10;;;;;;;15.75;70.34;99030.89;113092;1195;97608;-71
2021/09/25 09:06:36;;;;;;;20.20;7.80;;;;;;;15.82;70.07;99032.31;112886;1196;107573;-70
2021/09/25 09:09:10;;;;;;;19.40;8.30;;;;;;;15.86;70.21;99031.73;113085;1195;97587;-71
2021/09/25 09:11:43;;;;;;;20.00;7.60;;;;;;;15.91;70.05;99029.83;113144;1195;97557;-70
2021/09/25 09:14:17;;;;;;;14.50;6.20;;;;;;;15.95;70.00;99026.59;113052;1195;111134;-71
2021/09/25 09:16:59;;;;;;;17.00;6.70;;;;;;;15.99;70.01;99026.38;113174;1195;97623;-71
2021/09/25 09:19:36;;;;;;;14.80;5.80;;;;;;;16.04;69.93;99032.52;113131;1195;107570;-70
2021/09/25 09:22:07;;;;;;;18.60;6.50;;;;;;;16.08;69.99;99036.98;113173;1195;95029;-71
2021/09/25 09:24:49;;;;;;;19.10;6.20;;;;;;;16.11;69.89;99041.04;113252;1195;96343;-70
2021/09/25 09:27:22;;;;;;;12.60;5.70;;;;;;;16.13;69.81;99038.12;113065;1197;111113;-70
2021/09/25 09:30:08;;;;;;;13.30;5.40;;;;;;;16.15;69.92;99038.96;113046;1195;96933;-73
2021/09/25 09:32:48;;;;;;;13.20;5.10;;;;;;;16.17;69.84;99043.27;113581;1195;107556;-72
2021/09/25 09:35:19;;;;;;;13.40;5.90;;;;;;;16.19;69.82;99038.29;113172;1195;97676;-71
2021/09/25 09:37:52;;;;;;;11.40;4.80;;;;;;;16.20;69.87;99038.89;114902;1194;95465;-72
2021/09/25 09:40:20;;;;;;;;;;;;;;;16.22;69.80;99040.79;114540;1195;111660;-71
2021/09/25 09:42:49;;;;;;;11.50;5.00;;;;;;;16.23;69.78;99040.56;112827;1195;97763;-72
2021/09/25 09:45:26;;;;;;;12.50;4.70;;;;;;;16.27;69.86;99036.82;112863;1195;107369;-70
2021/09/25 09:47:57;;;;;;;12.10;4.80;;;;;;;16.28;69.66;99039.36;112739;1195;97595;-71
2021/09/25 09:50:29;;;;;;;9.90;4.70;;;;;;;16.29;69.70;99039.44;112749;1195;95681;-72
2021/09/25 09:53:14;;;;;;;8.30;4.20;;;;;;;16.29;69.68;99041.58;113010;1196;111727;-70
2021/09/25 09:55:47;;;;;;;8.90;4.50;;;;;;;16.30;69.49;99047.05;113049;1195;96062;-72
2021/09/25 09:58:16;;;;;;;10.10;4.50;;;;;;;16.31;69.54;99041.60;113094;1195;107528;-71
2021/09/25 10:00:44;;;;;;;10.20;4.60;;;;;;;16.32;69.64;99039.17;112826;1195;97788;-70
2021/09/25 10:03:14;;;;;;;12.40;5.00;;;;;;;16.33;69.55;99041.19;112979;1196;98012;-72
2021/09/25 10:05:44;;;;;;;9.50;5.00;;;;;;;16.35;69.45;99038.83;113020;1196;111161;-72
2021/09/25 10:08:13;;;;;;;14.80;5.20;;;;;;;16.38;69.29;99042.11;113000;1195;96308;-72
2021/09/25 10:10:41;;;;;;;12.20;4.60;;;;;;;16.43;69.44;99041.31;113036;1195;107571;-70
2021/09/25 10:13:13;;;;;;;10.60;4.70;;;;;;;16.48;69.50;99044.02;112967;1196;97583;-72
2021/09/25 10:15:41;;;;;;;11.60;5.00;;;;;;;16.54;69.39;99041.34;113012;1196;97660;-70
2021/09/25 10:18:09;;;;;;;9.60;5.10;;;;;;;16.59;69.29;99046.92;113082;1195;111128;-71
2021/09/25 10:20:40;;;;;;;9.10;4.90;;;;;;;16.65;69.22;99046.89;112843;1196;97641;-72
2021/09/25 10:23:08;;;;;;;11.50;5.10;;;;;;;16.70;69.20;99045.83;113072;1195;108671;-72
2021/09/25 10:25:35;;;;;;;12.60;4.80;;;;;;;16.76;69.14;99054.08;113078;1195;97581;-72
2021/09/25 10:28:28;;;;;;;13.10;5.30;;;;;;;16.80;69.02;99048.02;113037;1195;95913;-71
2021/09/25 10:30:58;;;;;;;12.40;5.10;;;;;;;16.86;68.92;99044.68;113068;1195;111156;-72
2021/09/25 10:33:25;;;;;;;15.40;4.90;;;;;;;16.90;68.95;99049.95;113101;1195;97689;-71
2021/09/25 10:35:55;;;;;;;12.60;5.00;;;;;;;16.95;68.92;99049.11;112871;1196;107347;-72
2021/09/25 10:38:38;;;;;;;9.10;4.20;;;;;;;17.00;68.90;99052.04;113112;1195;97651;-73
2021/09/25 10:41:27;;;;;;;11.00;4.80;;;;;;;17.05;68.84;99051.73;113093;1195;95016;-71
2021/09/25 10:43:56;;;;;;;11.60;5.00;;;;;;;17.07;68.80;99055.64;113003;1195;111341;-70
2021/09/25 10:46:23;;;;;;;14.80;5.30;;;;;;;17.10;68.90;99050.65;113090;1195;97537;-71
2021/09/25 10:48:52;;;;;;;12.80;5.10;;;;;;;17.14;68.66;99053.89;113060;1195;107505;-71
2021/09/25 10:51:21;;;;;;;12.70;5.10;;;;;;;17.18;68.75;99055.46;113053;1195;97644;-73
2021/09/25 10:53:51;;;;;;;12.10;5.20;;;;;;;17.21;68.72;99053.21;113020;1196;97639;-72
2021/09/25 10:56:26;;;;;;;10.90;5.40;;;;;;;17.24;68.71;99055.60;113048;1195;113074;-71
2021/09/25 10:59:06;;;;;;;10.90;5.40;;;;;;;17.27;68.62;99054.58;113037;1195;97583;-72
2021/09/25 11:01:40;;;;;;;12.20;4.80;;;;;;;17.31;68.53;99055.66;113021;1195;107523;-72
2021/09/25 11:04:21;;;;;;;12.10;5.50;;;;;;;17.35;68.55;99053.56;113080;1196;97755;-71
2021/09/25 11:06:53;;;;;;;12.20;5.10;;;;;;;17.38;68.56;99052.41;113078;1195;95045;-71
2021/09/25 11:09:39;;;;;;;14.60;5.10;;;;;;;17.41;68.65;99051.39;113093;1195;110731;-71
2021/09/25 11:12:12;;;;;;;11.40;5.60;;;;;;;17.44;68.49;99046.55;113210;1195;97609;-72
2021/09/25 11:14:49;;;;;;;13.90;5.40;;;;;;;17.49;68.56;99045.41;113076;1195;108352;-72
2021/09/25 11:17:17;;;;;;;11.80;5.60;;;;;;;17.54;68.56;99045.20;113153;1195;97689;-72
2021/09/25 11:20:04;;;;;;;14.00;5.60;;;;;;;17.59;68.44;99047.77;113141;1195;97584;-73
2021/09/25 11:22:45;;;;;;;9.90;4.90;;;;;;;17.65;68.47;99045.05;113113;1195;111175;-72
2021/09/25 11:25:18;;;;;;;11.70;5.10;;;;;;;17.71;68.37;99045.98;113051;1195;95132;-73